Time;durP1;ratioP1;P1;durP2;ratioP2;P2;SDS_P1;SDS_P2;PMS_P1;PMS_P2;Temp;Humidity;BMP_temperature;BMP_pressure;BME280_temperature;BME280_humidity;BME280_pressure;Samples;Min_cycle;Max_cycle;Signal;HPM_P1;HPM_P2
2022/01/23 00:00:51;;;;;;;66.45;31.83;;;;;;;-1.51;100.00;102099.84;4892945;29;20049;-67
2022/01/23 00:03:19;;;;;;;67.22;32.85;;;;;;;-1.52;100.00;102095.47;4893580;29;20380;-68
2022/01/23 00:05:49;;;;;;;73.57;32.83;;;;;;;-1.51;100.00;102097.97;4895858;29;20053;-68
2022/01/23 00:08:20;;;;;;;74.93;33.40;;;;;;;-1.53;100.00;102099.13;4895722;29;20049;-68
2022/01/23 00:10:51;;;;;;;70.63;32.53;;;;;;;-1.58;100.00;102096.09;4894739;29;20048;-69
2022/01/23 00:13:27;;;;;;;67.88;30.50;;;;;;;-1.60;100.00;102095.41;4898783;29;20057;-68
2022/01/23 00:18:42;;;;;;;64.68;31.30;;;;;;;-1.42;100.00;102093.47;4898768;29;20056;-68
2022/01/23 00:21:10;;;;;;;68.75;32.28;;;;;;;-1.41;100.00;102091.66;4898228;29;20056;-68
2022/01/23 00:31:40;;;;;;;68.03;33.05;;;;;;;-1.44;100.00;102094.63;4890646;29;20075;-68
2022/01/23 00:34:08;;;;;;;71.45;30.90;;;;;;;-1.45;100.00;102091.13;4897378;29;20420;-68
2022/01/23 00:36:38;;;;;;;67.80;32.92;;;;;;;-1.45;100.00;102096.50;4892288;29;20049;-68
2022/01/23 00:39:06;;;;;;;79.55;34.45;;;;;;;-1.48;100.00;102083.38;4897224;29;20060;-68
2022/01/23 00:41:34;;;;;;;65.75;29.95;;;;;;;-1.51;100.00;102095.28;4898135;29;20053;-68
2022/01/23 00:44:03;;;;;;;62.33;30.58;;;;;;;-1.46;100.00;102099.34;4898447;29;20407;-68
2022/01/23 00:46:34;;;;;;;69.95;31.67;;;;;;;-1.23;100.00;102088.81;4898208;29;20079;-68
2022/01/23 00:51:37;;;;;;;77.47;31.55;;;;;;;-1.29;100.00;102101.09;4898137;29;20053;-68
2022/01/23 00:54:08;;;;;;;73.30;31.63;;;;;;;-1.37;100.00;102104.56;4896930;29;20403;-68
2022/01/23 00:56:36;;;;;;;69.68;31.23;;;;;;;-1.43;100.00;102104.41;4898117;29;20052;-68
2022/01/23 00:59:04;;;;;;;70.72;31.65;;;;;;;-1.50;100.00;102088.91;4896828;29;20056;-68
2022/01/23 01:01:32;;;;;;;66.30;31.45;;;;;;;-1.38;100.00;102097.53;4896611;29;20048;-68
2022/01/23 01:04:01;;;;;;;65.80;30.83;;;;;;;-1.23;100.00;102100.44;4897998;29;20059;-68
2022/01/23 01:06:28;;;;;;;67.75;32.10;;;;;;;-1.15;100.00;102110.38;4898143;29;20067;-68
2022/01/23 01:09:02;;;;;;;69.45;31.98;;;;;;;-1.33;100.00;102104.25;4897997;29;20057;-68
2022/01/23 01:35:29;;;;;;;62.15;29.65;;;;;;;-1.77;100.00;102109.59;4915010;29;20526;-68
2022/01/23 01:37:57;;;;;;;68.35;29.52;;;;;;;-1.75;100.00;102109.47;4916255;29;20052;-68
2022/01/23 01:40:26;;;;;;;67.53;30.45;;;;;;;-1.73;100.00;102114.63;4914522;29;20514;-68
2022/01/23 01:42:55;;;;;;;66.28;31.15;;;;;;;-1.74;100.00;102111.13;4915209;29;20052;-68
2022/01/23 01:45:28;;;;;;;70.63;30.38;;;;;;;-1.76;100.00;102107.78;4914620;29;20048;-68
2022/01/23 01:48:04;;;;;;;69.22;30.55;;;;;;;-1.77;100.00;102101.56;4914533;29;20060;-68
2022/01/23 01:50:33;;;;;;;73.22;31.85;;;;;;;-1.70;100.00;102103.59;4914670;29;20076;-68
2022/01/23 01:53:05;;;;;;;61.55;27.98;;;;;;;-1.58;100.00;102106.81;4914568;29;20048;-68
2022/01/23 01:55:42;;;;;;;62.28;29.55;;;;;;;-1.58;100.00;102104.13;4914572;29;20055;-68
2022/01/23 02:09:47;;;;;;;61.15;28.48;;;;;;;-1.52;100.00;102100.84;4914608;29;20403;-68
2022/01/23 02:57:10;;;;;;;59.55;27.92;;;;;;;-1.54;100.00;102108.19;4897341;29;20071;-68
2022/01/23 02:59:40;;;;;;;55.72;27.30;;;;;;;-1.60;100.00;102104.31;4899253;29;20526;-68
2022/01/23 03:05:34;;;;;;;61.65;28.63;;;;;;;-1.59;100.00;102091.72;4900166;29;20053;-68
2022/01/23 03:08:19;;;;;;;59.88;28.58;;;;;;;-1.47;100.00;102093.13;4898795;29;20053;-68
2022/01/23 03:11:00;;;;;;;53.55;25.60;;;;;;;-1.59;100.00;102100.63;4899874;29;20064;-68
2022/01/23 03:24:22;;;;;;;61.60;28.48;;;;;;;-1.39;100.00;102105.75;4899858;29;20061;-68
2022/01/23 03:29:56;;;;;;;58.70;26.85;;;;;;;-1.57;100.00;102112.03;4899486;29;20393;-68
2022/01/23 03:32:40;;;;;;;57.45;26.00;;;;;;;-1.66;100.00;102104.97;4887728;29;20518;-68
2022/01/23 03:35:08;;;;;;;57.88;27.20;;;;;;;-1.73;100.00;102115.50;4899598;29;20068;-68
2022/01/23 03:37:36;;;;;;;48.95;26.25;;;;;;;-1.78;100.00;102104.38;4899560;29;20400;-68
2022/01/23 03:40:06;;;;;;;53.75;26.02;;;;;;;-1.78;100.00;102107.06;4899542;29;20059;-68
2022/01/23 03:42:37;;;;;;;55.30;27.45;;;;;;;-1.86;100.00;102110.56;4899453;29;20518;-68
2022/01/23 03:50:46;;;;;;;59.35;27.20;;;;;;;-1.89;100.00;102110.88;4905229;29;20059;-68
2022/01/23 03:53:25;;;;;;;60.08;27.70;;;;;;;-1.83;100.00;102109.41;4917109;29;20048;-68
2022/01/23 03:55:54;;;;;;;55.35;27.33;;;;;;;-1.89;100.00;102105.50;4916923;29;20053;-68
2022/01/23 03:58:22;;;;;;;59.55;28.27;;;;;;;-1.92;100.00;102114.72;4918060;29;20052;-68
2022/01/23 04:00:50;;;;;;;56.80;25.80;;;;;;;-2.00;100.00;102109.31;4916646;29;20052;-68
2022/01/23 04:03:19;;;;;;;57.65;28.77;;;;;;;-2.06;100.00;102105.41;4916697;29;20041;-68
2022/01/23 04:05:47;;;;;;;53.75;26.25;;;;;;;-2.11;100.00;102098.84;4917968;29;20056;-68
2022/01/23 04:08:16;;;;;;;51.08;25.05;;;;;;;-2.07;100.00;102100.19;4916240;29;20056;-68
2022/01/23 04:10:47;;;;;;;57.65;25.35;;;;;;;-2.10;100.00;102111.25;4916606;29;20526;-68
2022/01/23 04:13:24;;;;;;;54.78;26.48;;;;;;;-2.20;100.00;102104.13;4916408;29;20048;-68
2022/01/23 04:16:07;;;;;;;58.08;26.17;;;;;;;-1.94;100.00;102108.69;4916665;29;20059;-68
2022/01/23 04:32:21;;;;;;;51.17;24.42;;;;;;;-2.06;100.00;102112.59;4912892;29;20100;-68
2022/01/23 04:35:14;;;;;;;59.47;26.00;;;;;;;-1.77;100.00;102106.94;4897434;29;20059;-68
2022/01/23 04:59:33;;;;;;;59.63;24.48;;;;;;;-1.81;100.00;102107.41;4898484;29;20068;-68
2022/01/23 05:00:13;;;;;;;52.42;24.52;;;;;;;-2.03;100.00;102120.34;4896705;29;20060;-68
2022/01/23 05:05:59;;;;;;;51.80;24.95;;;;;;;-1.98;100.00;102126.09;4914188;29;20056;-68
2022/01/23 05:08:43;;;;;;;54.72;23.33;;;;;;;-2.03;100.00;102115.84;4898221;29;20048;-68
2022/01/23 05:11:22;;;;;;;60.22;25.33;;;;;;;-1.98;100.00;102128.78;4887646;29;20404;-68
2022/01/23 05:14:04;;;;;;;49.70;25.88;;;;;;;-2.00;100.00;102128.09;4897977;29;20060;-68
2022/01/23 05:16:33;;;;;;;58.70;25.27;;;;;;;-1.75;100.00;102122.88;4896621;29;20130;-68
2022/01/23 05:19:03;;;;;;;53.60;24.85;;;;;;;-1.57;100.00;102122.78;4897607;29;20456;-68
2022/01/23 05:24:01;;;;;;;52.50;24.35;;;;;;;-1.42;100.00;102133.75;4890513;29;20400;-68
2022/01/23 05:26:29;;;;;;;53.30;25.00;;;;;;;-1.46;100.00;102132.41;4883661;29;20048;-68
2022/01/23 05:28:57;;;;;;;48.90;24.00;;;;;;;-1.48;100.00;102134.41;4896459;29;20053;-68
2022/01/23 05:31:24;;;;;;;54.80;25.55;;;;;;;-1.52;100.00;102138.44;4894868;29;20048;-68
2022/01/23 05:33:52;;;;;;;53.78;23.15;;;;;;;-1.57;100.00;102143.44;4897086;29;20045;-68
2022/01/23 05:36:22;;;;;;;52.85;24.48;;;;;;;-1.65;100.00;102134.31;4896466;29;20412;-68
2022/01/23 05:38:50;;;;;;;48.63;23.83;;;;;;;-1.63;100.00;102142.22;4896282;29;20048;-68
2022/01/23 05:41:19;;;;;;;53.15;24.05;;;;;;;-1.48;100.00;102145.16;4895996;29;20056;-68
2022/01/23 05:43:48;;;;;;;47.22;22.20;;;;;;;-1.63;100.00;102153.81;4895630;29;20045;-68
2022/01/23 05:46:16;;;;;;;52.50;22.67;;;;;;;-1.60;100.00;102152.66;4897650;29;20507;-68
2022/01/23 05:49:08;;;;;;;48.05;23.15;;;;;;;-1.40;100.00;102147.88;4897257;29;20059;-68
2022/01/23 05:51:54;;;;;;;47.00;23.25;;;;;;;-1.18;100.00;102156.34;4895896;29;20049;-68
2022/01/23 05:54:41;;;;;;;55.38;23.27;;;;;;;-1.17;100.00;102157.19;4897045;29;20063;-68
2022/01/23 05:57:28;;;;;;;46.30;23.48;;;;;;;-1.18;100.00;102167.09;4896993;29;20049;-68
2022/01/23 06:00:25;;;;;;;40.50;21.60;;;;;;;-1.19;100.00;102160.03;4899719;29;20053;-68
2022/01/23 06:02:53;;;;;;;48.88;23.13;;;;;;;-1.31;100.00;102170.25;4885856;29;20053;-68
2022/01/23 06:05:31;;;;;;;50.95;22.60;;;;;;;-1.36;100.00;102170.72;4890004;29;20048;-67
2022/01/23 06:08:03;;;;;;;42.97;22.08;;;;;;;-1.40;100.00;102169.38;4883912;29;20048;-68
2022/01/23 06:10:46;;;;;;;51.30;21.85;;;;;;;-1.43;100.00;102171.53;4910181;29;20056;-68
2022/01/23 06:13:14;;;;;;;44.55;22.50;;;;;;;-1.44;100.00;102173.38;4914267;29;20048;-68
2022/01/23 06:15:42;;;;;;;46.58;22.08;;;;;;;-1.45;100.00;102173.53;4914319;29;20056;-68
2022/01/23 06:18:10;;;;;;;50.35;23.20;;;;;;;-1.46;100.00;102180.75;4915815;29;20048;-68
2022/01/23 06:20:57;;;;;;;47.38;23.13;;;;;;;-1.42;100.00;102184.78;4915184;29;20052;-68
2022/01/23 06:23:48;;;;;;;51.00;23.80;;;;;;;-1.43;100.00;102191.16;4914429;29;20052;-68
2022/01/23 06:26:48;;;;;;;39.22;21.63;;;;;;;-1.40;100.00;102206.97;4889846;29;20052;-68
2022/01/23 06:29:18;;;;;;;48.60;22.02;;;;;;;-1.40;100.00;102206.97;4904943;29;20060;-68
2022/01/23 06:31:48;;;;;;;51.70;23.85;;;;;;;-1.39;100.00;102205.97;4889055;29;20048;-68
2022/01/23 06:34:18;;;;;;;47.45;23.90;;;;;;;-1.32;100.00;102202.63;4896436;29;20067;-68
2022/01/23 06:36:50;;;;;;;45.92;22.98;;;;;;;-1.29;100.00;102200.47;4894087;29;20052;-68
2022/01/23 06:39:20;;;;;;;43.88;24.15;;;;;;;-1.27;100.00;102211.06;4896583;29;20392;-68
2022/01/23 06:41:51;;;;;;;48.70;22.77;;;;;;;-1.20;100.00;102222.84;4893791;29;20506;-68
2022/01/23 06:44:38;;;;;;;46.75;23.58;;;;;;;-1.13;100.00;102225.75;4896059;29;20056;-68
2022/01/23 06:47:11;;;;;;;50.00;22.85;;;;;;;-1.16;100.00;102226.91;4892242;29;20415;-68
2022/01/23 06:49:40;;;;;;;45.50;21.60;;;;;;;-1.17;100.00;102225.19;4895685;29;20057;-68
2022/01/23 06:52:08;;;;;;;47.65;21.80;;;;;;;-0.94;100.00;102232.69;4890264;29;20048;-68
2022/01/23 06:54:40;;;;;;;47.65;24.20;;;;;;;-0.98;100.00;102231.34;4894887;29;20049;-69
2022/01/23 06:57:10;;;;;;;60.50;24.80;;;;;;;-0.97;100.00;102241.09;4894355;29;20048;-68
2022/01/23 06:59:38;;;;;;;55.08;24.50;;;;;;;-0.97;100.00;102249.16;4893745;29;20048;-68
2022/01/23 07:02:24;;;;;;;50.35;23.90;;;;;;;-1.00;100.00;102260.22;4891019;29;20432;-68
2022/01/23 07:05:22;;;;;;;49.63;24.98;;;;;;;-0.90;100.00;102260.94;4889846;29;20060;-68
2022/01/23 07:08:07;;;;;;;42.15;21.70;;;;;;;-0.68;100.00;102258.66;4894745;29;20048;-68
2022/01/23 07:10:45;;;;;;;45.35;22.13;;;;;;;-0.70;100.00;102253.44;4882693;29;20044;-68
2022/01/23 07:13:38;;;;;;;47.55;24.10;;;;;;;-0.82;100.00;102258.25;4888233;29;20048;-68
2022/01/23 07:16:15;;;;;;;43.72;23.30;;;;;;;-0.84;100.00;102268.34;4881712;29;20057;-68
2022/01/23 07:19:03;;;;;;;48.22;23.63;;;;;;;-0.87;100.00;102262.47;4890299;29;20420;-68
2022/01/23 07:21:41;;;;;;;47.97;22.40;;;;;;;-0.63;100.00;102272.44;4889676;29;20075;-68
2022/01/23 07:24:10;;;;;;;48.35;21.20;;;;;;;-0.50;100.00;102255.03;4886793;29;20048;-68
2022/01/23 07:26:39;;;;;;;50.63;23.25;;;;;;;-0.60;100.00;102250.63;4884639;29;20415;-68
2022/01/23 07:29:07;;;;;;;46.92;23.13;;;;;;;-0.73;100.00;102247.56;4888525;29;20523;-68
2022/01/23 07:34:09;;;;;;;48.72;23.88;;;;;;;-0.71;100.00;102264.38;4894656;29;20060;-68
2022/01/23 07:36:38;;;;;;;42.80;21.23;;;;;;;-0.53;100.00;102258.03;4887692;29;20052;-68
2022/01/23 07:39:23;;;;;;;44.95;22.10;;;;;;;-0.41;100.00;102252.19;4877794;29;20514;-68
2022/01/23 07:41:52;;;;;;;49.58;22.80;;;;;;;-0.29;100.00;102263.47;4886094;29;20413;-68
2022/01/23 07:44:41;;;;;;;42.67;23.05;;;;;;;-0.41;100.00;102243.25;4889333;29;20044;-68
2022/01/23 07:47:14;;;;;;;53.28;24.95;;;;;;;-0.33;100.00;102256.75;4896586;29;20044;-68
2022/01/23 07:50:06;;;;;;;48.85;24.05;;;;;;;-0.25;100.00;102266.66;4898505;29;20059;-68
2022/01/23 07:52:46;;;;;;;53.42;26.02;;;;;;;-0.19;100.00;102246.34;4892261;29;20068;-68
2022/01/23 07:55:20;;;;;;;48.22;23.65;;;;;;;-0.22;100.00;102252.88;4897761;29;20415;-68
2022/01/23 07:58:24;;;;;;;45.88;22.67;;;;;;;-0.29;100.00;102251.88;4895782;29;20055;-69
2022/01/23 08:01:11;;;;;;;42.58;23.48;;;;;;;-0.06;100.00;102249.34;4896712;29;20056;-68
2022/01/23 08:04:06;;;;;;;44.42;21.52;;;;;;;0.24;98.28;102251.53;4893837;29;20416;-68
2022/01/23 08:06:43;;;;;;;46.75;23.83;;;;;;;0.32;97.28;102248.00;4896081;29;20060;-67
2022/01/23 08:09:40;;;;;;;49.10;23.10;;;;;;;0.17;97.70;102248.69;4895498;29;20535;-67
2022/01/23 08:12:09;;;;;;;46.67;23.55;;;;;;;0.15;97.89;102247.19;4896162;29;20045;-67
2022/01/23 08:14:37;;;;;;;50.88;23.05;;;;;;;0.16;97.64;102244.31;4895626;29;20068;-68
2022/01/23 08:17:05;;;;;;;42.80;22.58;;;;;;;0.18;98.06;102244.97;4894875;29;20067;-68
2022/01/23 08:19:33;;;;;;;50.10;23.17;;;;;;;0.12;98.49;102242.97;4897582;29;20053;-68
2022/01/23 08:22:01;;;;;;;42.42;22.65;;;;;;;0.16;99.21;102240.78;4885790;29;20064;-68
2022/01/23 08:24:30;;;;;;;43.65;21.77;;;;;;;0.23;98.56;102245.31;4891798;29;20056;-67
2022/01/23 08:26:58;;;;;;;44.67;21.77;;;;;;;0.26;98.09;102255.75;4888884;29;20473;-66
2022/01/23 08:29:28;;;;;;;46.45;22.88;;;;;;;0.36;98.08;102262.81;4896598;29;20048;-66
2022/01/23 08:31:56;;;;;;;44.20;21.92;;;;;;;0.40;98.60;102258.78;4885669;29;20041;-66
2022/01/23 08:34:24;;;;;;;45.42;22.00;;;;;;;0.42;97.87;102267.53;4888933;29;20070;-66
2022/01/23 08:36:55;;;;;;;42.67;21.77;;;;;;;0.61;96.58;102269.03;4885599;29;20053;-66
2022/01/23 08:39:26;;;;;;;46.30;21.77;;;;;;;0.93;94.71;102278.03;4892789;29;20408;-66
2022/01/23 08:41:54;;;;;;;42.13;22.33;;;;;;;0.97;94.97;102266.91;4885162;29;20068;-67
2022/01/23 08:44:26;;;;;;;38.40;21.13;;;;;;;1.07;94.06;102273.75;4895149;29;20056;-67
2022/01/23 08:46:55;;;;;;;40.15;20.33;;;;;;;0.86;94.53;102260.88;4886609;29;20044;-68
2022/01/23 08:49:25;;;;;;;39.60;20.92;;;;;;;1.07;94.18;102273.75;4892643;29;20051;-68
2022/01/23 08:51:55;;;;;;;40.92;21.58;;;;;;;1.15;93.59;102274.75;4890541;29;20056;-67
2022/01/23 08:54:24;;;;;;;41.25;20.75;;;;;;;1.07;93.62;102278.31;4887785;29;20052;-67
2022/01/23 08:56:52;;;;;;;44.30;22.50;;;;;;;1.15;94.22;102274.75;4883676;29;20048;-65
2022/01/23 08:59:20;;;;;;;38.75;20.23;;;;;;;1.26;93.84;102277.06;4891294;29;20051;-66
2022/01/23 09:01:48;;;;;;;41.13;21.63;;;;;;;1.32;93.57;102286.31;4883639;29;20057;-66
2022/01/23 09:04:16;;;;;;;35.25;19.85;;;;;;;1.33;93.01;102283.44;4893266;29;20059;-66
2022/01/23 09:06:46;;;;;;;43.88;22.33;;;;;;;1.43;93.16;102288.59;4901842;29;20051;-66
2022/01/23 09:09:18;;;;;;;34.28;20.77;;;;;;;1.67;93.49;102294.06;4888546;29;20049;-65
2022/01/23 09:11:59;;;;;;;41.72;21.33;;;;;;;1.79;91.77;102302.56;4897208;29;20059;-66
2022/01/23 09:14:28;;;;;;;39.60;19.77;;;;;;;1.85;91.84;102300.00;4904935;29;20566;-66
2022/01/23 09:16:58;;;;;;;34.03;19.92;;;;;;;1.92;91.83;102302.00;4911370;29;20044;-67
2022/01/23 09:19:28;;;;;;;40.58;22.67;;;;;;;1.97;90.77;102302.31;4911143;29;20072;-67
2022/01/23 09:21:57;;;;;;;39.72;20.70;;;;;;;2.20;89.52;102309.56;4896857;29;20067;-67
2022/01/23 09:24:27;;;;;;;36.40;19.65;;;;;;;2.58;88.42;102317.69;4915879;29;20040;-67
2022/01/23 09:27:02;;;;;;;41.72;20.75;;;;;;;2.62;87.60;102319.00;4915512;29;20411;-67
2022/01/23 09:29:36;;;;;;;42.83;20.50;;;;;;;2.75;86.52;102323.78;4905365;29;20048;-67
2022/01/23 09:32:06;;;;;;;;;;;;;;;2.72;86.80;102324.13;4897401;29;20060;-67
2022/01/23 09:34:34;;;;;;;38.92;20.38;;;;;;;3.00;87.28;102333.50;4896942;29;19923;-67
2022/01/23 09:37:07;;;;;;;37.45;21.75;;;;;;;2.95;86.43;102334.88;4896026;29;20052;-67
2022/01/23 09:39:37;;;;;;;37.20;20.90;;;;;;;3.14;85.59;102332.69;4896982;29;20049;-67
2022/01/23 09:42:10;;;;;;;40.63;20.35;;;;;;;3.12;85.67;102345.53;4914071;29;20400;-67
2022/01/23 09:44:45;;;;;;;41.63;22.17;;;;;;;3.20;85.10;102348.16;4915595;29;20048;-67
2022/01/23 09:47:14;;;;;;;38.15;20.40;;;;;;;3.28;85.40;102355.31;4913550;29;20121;-66
2022/01/23 09:49:43;;;;;;;40.78;19.88;;;;;;;3.38;85.72;102351.50;4916033;29;20052;-66
2022/01/23 09:52:14;;;;;;;41.10;19.98;;;;;;;3.61;84.62;102346.81;4915833;29;20055;-66
2022/01/23 09:54:45;;;;;;;39.25;20.48;;;;;;;3.69;83.95;102359.41;4915710;29;20415;-66
2022/01/23 09:57:13;;;;;;;39.05;21.05;;;;;;;3.86;83.67;102361.91;4914783;29;20062;-67
2022/01/23 09:59:43;;;;;;;38.80;20.40;;;;;;;3.83;83.72;102362.25;4898735;29;20392;-66
2022/01/23 10:02:11;;;;;;;33.65;19.30;;;;;;;3.76;83.53;102362.19;4914319;29;20047;-67
2022/01/23 10:04:39;;;;;;;35.92;18.73;;;;;;;3.75;83.79;102357.78;4906816;29;20056;-66
2022/01/23 10:07:07;;;;;;;37.45;19.80;;;;;;;3.96;83.85;102362.41;4914036;29;20056;-66
2022/01/23 10:09:36;;;;;;;35.08;19.48;;;;;;;4.35;81.53;102354.88;4915228;29;20044;-66
2022/01/23 10:12:11;;;;;;;35.75;19.20;;;;;;;4.64;79.63;102347.63;4915214;29;20060;-66
2022/01/23 10:14:40;;;;;;;33.25;20.02;;;;;;;5.04;77.44;102341.66;4915620;29;20055;-66
2022/01/23 10:17:09;;;;;;;40.33;19.63;;;;;;;5.56;76.87;102338.59;4915144;29;20495;-66
2022/01/23 10:19:38;;;;;;;31.63;18.58;;;;;;;5.73;73.81;102339.06;4913656;29;20055;-67
2022/01/23 10:22:07;;;;;;;33.88;18.10;;;;;;;5.86;73.20;102340.97;4915031;29;20412;-66
2022/01/23 10:24:35;;;;;;;31.98;17.10;;;;;;;6.12;72.40;102341.28;4915146;29;20061;-67
2022/01/23 10:27:04;;;;;;;32.45;18.38;;;;;;;6.05;70.66;102331.25;4914307;29;20384;-67
2022/01/23 10:29:36;;;;;;;31.98;17.63;;;;;;;6.47;69.89;102332.13;4902930;29;20049;-67
2022/01/23 10:32:20;;;;;;;32.03;17.70;;;;;;;6.67;68.79;102322.09;4894592;29;20511;-67
2022/01/23 10:35:00;;;;;;;33.33;17.30;;;;;;;7.08;68.36;102322.84;4895945;29;20056;-67
2022/01/23 10:37:41;;;;;;;34.33;18.83;;;;;;;7.36;66.29;102327.16;4894521;29;20063;-68
2022/01/23 10:40:22;;;;;;;37.40;18.33;;;;;;;7.31;66.36;102313.34;4894761;29;20056;-67
2022/01/23 10:48:34;;;;;;;33.05;18.90;;;;;;;7.59;65.09;102308.63;4895883;29;20523;-67
2022/01/23 10:51:19;;;;;;;35.95;20.73;;;;;;;7.33;65.45;102303.06;4893319;29;20397;-67
2022/01/23 10:54:07;;;;;;;37.03;20.00;;;;;;;7.20;65.61;102295.81;4893299;29;20403;-68
2022/01/23 10:56:57;;;;;;;33.85;18.65;;;;;;;7.59;64.63;102297.72;4888800;29;20147;-68
2022/01/23 10:59:48;;;;;;;36.83;18.90;;;;;;;7.85;63.07;102290.44;4891363;29;20052;-68
2022/01/23 11:02:21;;;;;;;33.88;18.80;;;;;;;7.93;62.91;102299.19;4881543;29;20065;-65
2022/01/23 11:04:53;;;;;;;39.25;20.10;;;;;;;8.09;62.31;102298.88;4883883;29;20048;-66
2022/01/23 11:07:26;;;;;;;33.88;19.05;;;;;;;8.26;61.71;102297.28;4887946;29;20099;-66
2022/01/23 11:10:05;;;;;;;39.10;19.75;;;;;;;8.17;62.73;102298.63;4894143;29;20071;-66
2022/01/23 11:18:04;;;;;;;37.78;18.73;;;;;;;7.92;64.07;102291.25;4902715;29;20052;-65
2022/01/23 11:20:32;;;;;;;38.70;20.02;;;;;;;7.99;63.98;102296.66;4888779;29;20051;-66
2022/01/23 11:23:14;;;;;;;45.00;18.92;;;;;;;8.00;64.33;102290.97;4897717;29;20071;-66
2022/01/23 11:26:07;;;;;;;40.95;20.85;;;;;;;7.84;66.21;102292.34;4885031;29;20045;-66
2022/01/23 11:28:45;;;;;;;38.22;19.75;;;;;;;7.52;67.40;102295.03;4884218;29;20056;-66
2022/01/23 11:31:18;;;;;;;48.17;21.50;;;;;;;7.61;70.06;102290.16;4889401;29;20403;-65
2022/01/23 11:33:47;;;;;;;45.85;21.55;;;;;;;7.68;69.59;102295.59;4896370;29;20053;-65
2022/01/23 11:36:18;;;;;;;46.42;22.02;;;;;;;7.49;70.18;102288.13;4896312;29;20503;-67
2022/01/23 11:38:51;;;;;;;43.75;20.50;;;;;;;7.47;70.40;102292.97;4892839;29;20053;-67
2022/01/23 11:55:36;;;;;;;45.47;20.10;;;;;;;8.28;69.59;102267.91;4885552;29;20053;-67
2022/01/23 11:58:05;;;;;;;45.05;20.55;;;;;;;7.88;70.40;102277.22;4892551;29;20055;-67
2022/01/23 12:00:36;;;;;;;45.20;20.23;;;;;;;8.11;70.16;102262.16;4892323;29;20471;-67
2022/01/23 12:03:09;;;;;;;51.28;22.98;;;;;;;7.99;69.75;102259.34;4897371;29;20060;-67
2022/01/23 12:05:41;;;;;;;44.20;21.23;;;;;;;8.21;68.25;102248.03;4894675;29;20045;-67
2022/01/23 12:08:20;;;;;;;52.97;22.42;;;;;;;7.99;69.80;102259.34;4896986;29;20503;-67
2022/01/23 12:17:05;;;;;;;47.00;22.75;;;;;;;7.89;70.82;102256.25;4889486;29;20052;-67
2022/01/23 12:19:40;;;;;;;50.60;22.77;;;;;;;7.90;70.70;102239.69;4891407;29;20063;-68
2022/01/23 12:22:22;;;;;;;45.35;22.50;;;;;;;8.15;69.46;102235.28;4894455;29;20067;-68
2022/01/23 12:24:52;;;;;;;47.55;22.88;;;;;;;8.34;70.05;102237.03;4897143;29;20057;-68
2022/01/23 12:27:26;;;;;;;48.28;23.55;;;;;;;8.43;68.09;102239.44;4893166;29;20052;-68
2022/01/23 12:30:10;;;;;;;57.25;25.20;;;;;;;8.49;66.96;102230.38;4893220;29;20056;-67
2022/01/23 12:32:38;;;;;;;51.10;24.45;;;;;;;8.54;66.31;102241.47;4896463;29;20526;-67
2022/01/23 12:35:08;;;;;;;53.53;24.38;;;;;;;8.65;66.92;102228.16;4890064;29;20057;-67
2022/01/23 12:38:02;;;;;;;50.08;23.42;;;;;;;8.14;67.52;102237.19;4891612;29;20052;-67
2022/01/23 12:40:33;;;;;;;52.35;23.63;;;;;;;8.32;67.90;102233.66;4887668;29;20493;-67
2022/01/23 12:43:15;;;;;;;52.22;23.55;;;;;;;8.54;66.98;102225.09;4893112;29;20052;-67
2022/01/23 12:46:02;;;;;;;47.95;22.48;;;;;;;8.17;66.54;102225.81;4884473;29;20080;-67
2022/01/23 12:48:38;;;;;;;51.38;24.77;;;;;;;8.08;67.06;102224.44;4890900;29;20527;-67
2022/01/23 12:51:08;;;;;;;48.97;23.70;;;;;;;8.27;67.71;102221.75;4894804;29;20060;-68
2022/01/23 12:53:47;;;;;;;51.08;22.25;;;;;;;8.29;67.34;102209.56;4897394;29;20747;-67
2022/01/23 12:56:18;;;;;;;48.83;23.08;;;;;;;8.35;67.09;102216.00;4896979;29;20512;-68
2022/01/23 12:58:52;;;;;;;44.95;21.05;;;;;;;8.00;68.21;102224.69;4895333;29;20455;-68
2022/01/23 13:01:23;;;;;;;56.83;25.48;;;;;;;8.16;67.45;102212.44;4897248;29;20057;-67
2022/01/23 13:03:58;;;;;;;51.03;24.83;;;;;;;8.37;67.57;102208.47;4897099;29;20044;-68
2022/01/23 13:06:42;;;;;;;49.40;23.50;;;;;;;8.49;66.74;102205.81;4897042;29;20057;-68
2022/01/23 13:09:12;;;;;;;45.03;22.85;;;;;;;8.35;66.68;102202.38;4894771;29;20547;-68
2022/01/23 13:18:13;;;;;;;52.63;23.75;;;;;;;8.24;68.72;102193.03;4897067;29;20068;-68
2022/01/23 13:32:03;;;;;;;50.83;24.98;;;;;;;8.13;68.77;102178.25;4894830;29;20048;-67
2022/01/23 13:34:39;;;;;;;50.67;23.98;;;;;;;8.22;68.02;102175.22;4896390;29;20076;-67
2022/01/23 13:37:14;;;;;;;50.88;24.95;;;;;;;8.37;67.42;102169.41;4897032;29;20053;-67
2022/01/23 13:40:04;;;;;;;54.97;25.10;;;;;;;8.36;68.45;102168.56;4899813;29;20521;-67
2022/01/23 13:42:51;;;;;;;50.88;24.95;;;;;;;8.05;69.32;102168.47;4911556;29;20496;-67
2022/01/23 13:52:24;;;;;;;49.28;25.17;;;;;;;7.84;69.54;102177.88;4903946;29;20558;-68
2022/01/23 14:00:06;;;;;;;52.90;25.38;;;;;;;7.36;71.59;102171.91;4899284;29;20048;-68
2022/01/23 14:02:40;;;;;;;56.95;26.63;;;;;;;7.27;72.21;102173.22;4907076;29;20408;-68
2022/01/23 14:05:19;;;;;;;55.15;26.13;;;;;;;7.23;72.92;102175.53;4909040;29;20052;-68
2022/01/23 14:07:52;;;;;;;48.58;24.73;;;;;;;7.19;73.85;102160.69;4880164;29;20499;-67
2022/01/23 14:10:28;;;;;;;54.30;27.08;;;;;;;7.24;73.99;102168.22;4887964;29;20060;-67
2022/01/23 14:13:19;;;;;;;53.15;25.42;;;;;;;7.17;73.71;102151.91;4889602;29;20526;-67
2022/01/23 14:15:53;;;;;;;54.53;25.52;;;;;;;7.15;74.09;102151.31;4882471;29;20053;-67
2022/01/23 14:18:27;;;;;;;58.90;24.42;;;;;;;7.08;73.44;102139.59;4879143;29;20052;-67
2022/01/23 14:21:01;;;;;;;49.72;25.50;;;;;;;7.15;74.38;102143.13;4893958;29;20048;-67
2022/01/23 14:23:30;;;;;;;56.63;25.95;;;;;;;7.06;73.26;102131.66;4895245;29;20082;-67
2022/01/23 14:26:06;;;;;;;51.95;25.27;;;;;;;6.97;73.61;102122.91;4893151;29;20049;-68
2022/01/23 14:28:41;;;;;;;51.38;24.60;;;;;;;6.96;74.48;102129.41;4884086;29;20411;-68
2022/01/23 14:31:22;;;;;;;48.42;24.02;;;;;;;6.84;74.73;102133.84;4893180;29;20045;-82
2022/01/23 14:33:57;;;;;;;54.25;24.52;;;;;;;6.81;75.62;102137.00;4869641;29;20056;-67
2022/01/23 14:36:33;;;;;;;57.33;25.40;;;;;;;6.84;76.63;102131.13;4886936;29;20060;-67
2022/01/23 14:39:08;;;;;;;51.88;24.98;;;;;;;6.79;77.19;102126.34;4885291;29;20048;-67
2022/01/23 14:41:39;;;;;;;55.47;26.90;;;;;;;6.69;77.76;102123.22;4894810;29;20053;-67
2022/01/23 14:44:17;;;;;;;59.42;28.23;;;;;;;6.78;77.47;102124.69;4889082;29;20060;-67
2022/01/23 14:46:53;;;;;;;54.03;26.08;;;;;;;6.67;77.98;102120.75;4889116;29;20049;-67
2022/01/23 14:49:27;;;;;;;52.05;26.25;;;;;;;6.73;77.58;102124.47;4889186;29;20056;-66
2022/01/23 14:51:57;;;;;;;49.22;25.45;;;;;;;6.66;77.71;102127.25;4889616;29;20506;-67
2022/01/23 14:54:29;;;;;;;56.75;26.17;;;;;;;6.63;77.61;102124.09;4889084;29;20063;-67
2022/01/23 14:56:59;;;;;;;58.95;25.85;;;;;;;6.64;77.15;102117.63;4892846;29;20504;-66
2022/01/23 14:59:30;;;;;;;56.25;26.75;;;;;;;6.51;77.17;102127.47;4898534;29;20488;-67
2022/01/23 15:01:59;;;;;;;55.45;26.02;;;;;;;6.55;76.94;102112.41;4896447;29;20055;-66
2022/01/23 15:04:27;;;;;;;56.67;26.63;;;;;;;6.44;77.16;102116.66;4898690;29;20053;-66
2022/01/23 15:06:55;;;;;;;58.42;26.50;;;;;;;6.36;77.76;102116.84;4898009;29;20036;-66
2022/01/23 15:09:23;;;;;;;55.47;26.70;;;;;;;6.22;78.29;102121.53;4899035;29;20048;-66
2022/01/23 15:11:52;;;;;;;69.30;30.42;;;;;;;6.28;79.18;102119.81;4888657;29;20053;-66
2022/01/23 15:14:20;;;;;;;59.17;27.70;;;;;;;6.23;80.00;102119.63;4899244;29;20399;-66
2022/01/23 15:16:50;;;;;;;56.55;27.38;;;;;;;6.28;79.82;102122.53;4898673;29;20064;-67
2022/01/23 15:19:18;;;;;;;65.32;28.20;;;;;;;6.22;80.89;102123.38;4899355;29;20053;-67